createdAt,value
2019-04-14T00:02:33.643Z,73.44
2019-04-14T00:05:04.561Z,73.66
2019-04-14T00:07:34.042Z,73.56
2019-04-14T00:10:05.033Z,73.73
2019-04-14T00:12:35.829Z,73.68
2019-04-14T00:15:17.620Z,73.32
2019-04-14T00:17:36.931Z,73.27
2019-04-14T00:20:07.376Z,73.31
2019-04-14T00:22:36.569Z,73.62
2019-04-14T00:25:06.629Z,73.65
2019-04-14T00:27:36.712Z,73.52
2019-04-14T00:30:07.992Z,73.53
2019-04-14T00:35:40.695Z,73.52
2019-04-14T00:38:34.616Z,73.68
2019-04-14T00:41:34.374Z,73.46
2019-04-14T00:44:05.692Z,73.56
2019-04-14T00:46:47.483Z,73.71
2019-04-14T00:49:17.871Z,73.84
2019-04-14T00:51:48.434Z,73.70
2019-04-14T00:54:17.660Z,73.75
2019-04-14T00:56:47.646Z,73.84
2019-04-14T00:59:17.895Z,73.92
2019-04-14T01:01:48.395Z,73.88
2019-04-14T01:04:18.740Z,73.68
2019-04-14T01:06:48.942Z,73.57
2019-04-14T01:09:19.316Z,73.56
2019-04-14T01:11:49.111Z,73.38
2019-04-14T01:14:19.045Z,73.21
2019-04-14T01:16:49.405Z,72.97
2019-04-14T01:19:19.833Z,72.81
2019-04-14T01:21:50.216Z,72.64
2019-04-14T01:24:20.600Z,72.47
2019-04-14T01:26:50.664Z,72.72
2019-04-14T01:29:20.965Z,72.83
2019-04-14T01:31:51.438Z,72.71
2019-04-14T01:34:21.671Z,72.70
2019-04-14T01:36:51.827Z,72.75
2019-04-14T01:39:22.088Z,73.00
2019-04-14T01:41:52.121Z,73.08
2019-04-14T01:44:22.099Z,73.23
2019-04-14T01:46:52.179Z,72.85
2019-04-14T01:49:22.485Z,72.72
2019-04-14T01:52:29.628Z,72.84
2019-04-14T01:55:26.694Z,73.11
2019-04-14T01:58:12.227Z,73.08
2019-04-14T02:00:47.290Z,73.00
2019-04-14T02:03:17.058Z,72.96
2019-04-14T02:05:47.251Z,73.06
2019-04-14T02:08:17.762Z,73.09
2019-04-14T02:10:47.807Z,73.10
2019-04-14T02:13:18.181Z,73.32
2019-04-14T02:15:48.518Z,71.98
2019-04-14T02:18:18.594Z,72.47
2019-04-14T02:20:48.936Z,72.63
2019-04-14T02:23:19.241Z,73.16
2019-04-14T02:25:49.384Z,72.48
2019-04-14T02:28:19.799Z,72.43
2019-04-14T02:31:01.692Z,72.41
2019-04-14T02:33:46.631Z,72.64
2019-04-14T02:36:22.020Z,72.77
2019-04-14T02:41:27.758Z,72.82
2019-04-14T02:43:48.223Z,72.91
2019-04-14T02:46:20.474Z,72.92
2019-04-14T02:51:27.559Z,73.12
2019-04-14T02:56:40.585Z,73.12
2019-04-14T02:58:59.896Z,73.11
2019-04-14T03:01:31.413Z,73.45
2019-04-14T03:03:58.484Z,73.55
2019-04-14T03:06:25.368Z,73.72
2019-04-14T03:20:05.379Z,73.76
2019-04-14T03:22:37.787Z,73.93
2019-04-14T03:25:29.637Z,73.92
2019-04-14T03:28:27.957Z,73.68
2019-04-14T03:41:10.563Z,74.06
2019-04-14T03:43:39.242Z,74.47
2019-04-14T03:46:11.564Z,74.31
2019-04-14T03:51:08.554Z,74.86
2019-04-14T03:53:32.150Z,74.73
2019-04-14T03:56:21.299Z,74.82
2019-04-14T03:58:51.148Z,74.78
2019-04-14T04:01:21.512Z,74.59
2019-04-14T04:03:52.087Z,74.61
2019-04-14T04:06:22.393Z,74.71
2019-04-14T04:08:51.548Z,74.78
2019-04-14T04:11:21.474Z,74.82
2019-04-14T04:13:52.055Z,74.79
2019-04-14T04:16:50.783Z,74.81
2019-04-14T04:19:59.853Z,74.79
2019-04-14T04:22:47.663Z,74.67
2019-04-14T04:25:31.168Z,74.91
2019-04-14T04:28:19.238Z,75.05
2019-04-14T04:30:53.693Z,75.03
2019-04-14T04:33:45.932Z,75.34
2019-04-14T04:36:37.776Z,75.33
2019-04-14T04:39:21.358Z,75.52
2019-04-14T04:41:51.586Z,75.73
2019-04-14T04:44:20.691Z,76.00
2019-04-14T04:46:50.480Z,76.00
2019-04-14T04:49:23.079Z,75.72
2019-04-14T04:51:50.843Z,75.92
2019-04-14T04:54:21.046Z,75.94
2019-04-14T04:56:50.248Z,75.90
2019-04-14T04:59:19.366Z,75.78
2019-04-14T05:01:49.416Z,75.60
2019-04-14T05:04:19.606Z,75.54
2019-04-14T05:07:38.330Z,75.58
2019-04-14T05:10:26.427Z,76.12
2019-04-14T05:13:18.317Z,76.04
2019-04-14T05:15:53.628Z,76.18
2019-04-14T05:18:24.715Z,76.16
2019-04-14T05:20:55.226Z,76.06
2019-04-14T05:23:25.626Z,76.43
2019-04-14T05:25:56.142Z,76.51
2019-04-14T05:28:26.572Z,76.33
2019-04-14T05:30:56.868Z,76.21
2019-04-14T05:33:27.074Z,75.92
2019-04-14T05:35:57.438Z,75.57
2019-04-14T05:38:29.347Z,75.47
2019-04-14T05:40:58.391Z,75.08
2019-04-14T05:43:38.666Z,74.85
2019-04-14T05:45:59.319Z,74.71
2019-04-14T05:48:29.374Z,74.52
2019-04-14T05:50:59.777Z,74.33
2019-04-14T05:53:30.456Z,73.86
2019-04-14T05:56:01.319Z,73.64
2019-04-14T05:58:31.701Z,73.28
2019-04-14T06:01:02.424Z,73.08
2019-04-14T06:03:32.137Z,72.79
2019-04-14T06:06:01.361Z,72.32
2019-04-14T06:08:30.487Z,72.10
2019-04-14T06:10:59.725Z,71.82
2019-04-14T06:13:28.843Z,71.43
2019-04-14T06:15:58.017Z,71.37
2019-04-14T06:18:27.139Z,71.17
2019-04-14T06:20:56.279Z,70.91
2019-04-14T06:23:25.553Z,70.73
2019-04-14T06:25:54.714Z,70.53
2019-04-14T06:28:23.878Z,70.49
2019-04-14T06:31:10.791Z,70.24
2019-04-14T06:33:46.685Z,69.93
2019-04-14T06:36:33.352Z,69.21
2019-04-14T06:39:08.595Z,68.54
2019-04-14T06:41:37.767Z,68.47
2019-04-14T06:44:06.911Z,67.93
2019-04-14T06:46:36.092Z,67.78
2019-04-14T06:49:05.281Z,67.41
2019-04-14T06:51:34.393Z,66.81
2019-04-14T06:54:03.553Z,66.40
2019-04-14T06:56:32.750Z,66.22
2019-04-14T06:59:01.895Z,65.57
2019-04-14T07:01:31.039Z,65.00
2019-04-14T07:04:00.182Z,64.65
2019-04-14T07:06:29.294Z,65.07
2019-04-14T07:08:58.508Z,63.49
2019-04-14T07:11:27.689Z,63.31
2019-04-14T07:13:56.813Z,62.64
2019-04-14T07:16:25.984Z,61.32
2019-04-14T07:18:55.126Z,57.98
2019-04-14T07:21:24.271Z,54.03
2019-04-14T07:23:53.452Z,49.26
2019-04-14T07:26:22.601Z,43.63
2019-04-14T07:28:56.793Z,39.40
2019-04-14T07:31:34.139Z,36.41
2019-04-14T07:34:37.526Z,33.82
2019-04-14T07:37:25.738Z,31.83
2019-04-14T07:39:58.199Z,29.90
2019-04-14T07:42:39.760Z,28.64
2019-04-14T07:45:18.389Z,27.72
2019-04-14T07:48:09.290Z,27.52
2019-04-14T07:50:57.432Z,26.80
2019-04-14T07:53:51.406Z,25.59
2019-04-14T07:56:31.813Z,26.18
2019-04-14T07:59:15.756Z,25.63
2019-04-14T08:01:52.525Z,25.09
2019-04-14T08:04:25.912Z,24.49
2019-04-14T08:06:57.618Z,24.46
2019-04-14T08:09:26.758Z,24.33
2019-04-14T08:11:55.919Z,24.67
2019-04-14T08:14:25.119Z,24.38
2019-04-14T08:16:54.272Z,25.79
2019-04-14T08:19:23.448Z,27.03
2019-04-14T08:21:52.542Z,28.25
2019-04-14T08:24:21.718Z,29.87
2019-04-14T08:26:50.881Z,30.68
2019-04-14T08:29:20.235Z,32.34
2019-04-14T08:31:49.799Z,33.05
2019-04-14T08:34:18.930Z,33.46
2019-04-14T08:36:48.079Z,33.47
2019-04-14T08:39:17.232Z,33.87
2019-04-14T08:41:54.157Z,33.83
2019-04-14T08:44:42.228Z,34.36
2019-04-14T08:47:21.906Z,34.47
2019-04-14T08:50:19.025Z,34.43
2019-04-14T08:53:10.232Z,33.74
2019-04-14T08:56:04.206Z,33.10
2019-04-14T08:58:52.319Z,33.34
2019-04-14T09:01:39.331Z,33.65
2019-04-14T09:04:33.651Z,33.68
2019-04-14T09:07:27.673Z,33.36
2019-04-14T09:10:00.975Z,33.84
2019-04-14T09:12:33.208Z,34.04
2019-04-14T09:15:02.447Z,34.22
2019-04-14T09:17:31.579Z,34.49
2019-04-14T09:20:00.713Z,34.57
2019-04-14T09:22:29.856Z,35.08
2019-04-14T09:24:58.971Z,35.61
2019-04-14T09:27:28.128Z,35.75
2019-04-14T09:29:57.260Z,36.71
2019-04-14T09:32:27.468Z,37.70
2019-04-14T09:34:56.635Z,37.15
2019-04-14T09:37:25.787Z,37.51
2019-04-14T09:39:54.909Z,38.21
2019-04-14T09:42:24.047Z,38.88
2019-04-14T09:44:53.177Z,39.67
2019-04-14T09:47:22.340Z,39.84
2019-04-14T09:49:51.449Z,40.14
2019-04-14T09:52:20.566Z,40.80
2019-04-14T09:54:49.803Z,40.67
2019-04-14T09:57:18.955Z,40.33
2019-04-14T09:59:48.118Z,39.82
2019-04-14T10:02:17.257Z,39.41
2019-04-14T10:04:46.399Z,39.65
2019-04-14T10:07:15.540Z,40.42
2019-04-14T10:09:44.687Z,41.42
2019-04-14T10:12:13.837Z,41.82
2019-04-14T10:14:42.979Z,41.71
2019-04-14T10:17:12.269Z,41.39
2019-04-14T10:19:41.410Z,43.53
2019-04-14T10:22:10.565Z,43.57
2019-04-14T10:24:39.709Z,44.20
2019-04-14T10:27:08.996Z,45.64
2019-04-14T10:29:38.129Z,45.38
2019-04-14T10:32:07.316Z,46.16
2019-04-14T10:34:36.452Z,46.01
2019-04-14T10:37:05.645Z,45.65
2019-04-14T10:39:34.803Z,45.27
2019-04-14T10:42:04.018Z,46.24
2019-04-14T10:44:33.184Z,46.52
2019-04-14T10:47:02.323Z,46.66
2019-04-14T10:49:31.460Z,47.47
2019-04-14T10:52:00.595Z,47.34
2019-04-14T10:54:29.730Z,47.73
2019-04-14T10:57:01.072Z,48.43
2019-04-14T10:59:29.729Z,48.58
2019-04-14T11:01:58.867Z,48.42
2019-04-14T11:04:28.007Z,47.93
2019-04-14T11:07:22.196Z,49.01
2019-04-14T11:09:53.837Z,49.34
2019-04-14T11:12:22.190Z,50.18
2019-04-14T11:14:51.332Z,50.12
2019-04-14T11:17:20.473Z,50.41
2019-04-14T11:19:49.633Z,50.88
2019-04-14T11:22:18.794Z,49.98
2019-04-14T11:24:47.945Z,51.25
2019-04-14T11:27:17.079Z,51.35
2019-04-14T11:29:46.289Z,51.27
2019-04-14T11:32:37.210Z,51.16
2019-04-14T11:35:12.230Z,51.18
2019-04-14T11:38:06.436Z,51.25
2019-04-14T11:40:40.566Z,51.51
2019-04-14T11:43:09.794Z,51.74
2019-04-14T11:45:39.137Z,51.29
2019-04-14T11:48:08.280Z,51.17
2019-04-14T11:50:37.440Z,51.71
2019-04-14T11:53:06.584Z,51.12
2019-04-14T11:55:35.698Z,50.91
2019-04-14T11:58:04.841Z,52.36
2019-04-14T12:00:55.828Z,52.08
2019-04-14T12:03:46.935Z,51.79
2019-04-14T12:06:44.070Z,51.73
2019-04-14T12:09:18.807Z,51.89
2019-04-14T12:11:47.040Z,51.40
2019-04-14T12:14:16.122Z,51.82
2019-04-14T12:16:45.237Z,51.70
2019-04-14T12:19:14.398Z,51.94
2019-04-14T12:21:43.512Z,52.40
2019-04-14T12:24:12.666Z,52.50
2019-04-14T12:26:41.868Z,52.59
2019-04-14T12:29:11.836Z,52.31
2019-04-14T12:31:41.986Z,52.12
2019-04-14T12:34:11.252Z,51.78
2019-04-14T12:36:40.468Z,52.32
2019-04-14T12:39:17.153Z,52.37
2019-04-14T12:41:50.839Z,52.17
2019-04-14T12:44:37.450Z,52.41
2019-04-14T12:47:28.861Z,52.58
2019-04-14T12:49:58.577Z,52.88
2019-04-14T12:52:28.408Z,52.76
2019-04-14T12:54:57.906Z,52.57
2019-04-14T12:57:34.570Z,52.65
2019-04-14T13:00:05.961Z,52.10
2019-04-14T13:02:37.896Z,51.96
2019-04-14T13:05:07.270Z,52.70
2019-04-14T13:07:36.916Z,53.79
2019-04-14T13:10:07.512Z,53.87
2019-04-14T13:12:36.637Z,54.37
2019-04-14T13:15:06.673Z,54.04
2019-04-14T13:17:35.801Z,53.86
2019-04-14T13:20:05.365Z,53.88
2019-04-14T13:22:34.593Z,54.52
2019-04-14T13:25:03.831Z,55.38
2019-04-14T13:27:33.006Z,55.69
2019-04-14T13:30:02.137Z,56.06
2019-04-14T13:32:36.259Z,56.29
2019-04-14T13:35:02.131Z,57.11
2019-04-14T13:37:31.273Z,57.73
2019-04-14T13:40:00.385Z,58.54
2019-04-14T13:42:29.554Z,58.23
2019-04-14T13:44:58.685Z,58.47
2019-04-14T13:47:27.885Z,58.32
2019-04-14T13:49:57.049Z,59.98
2019-04-14T13:52:26.188Z,59.63
2019-04-14T13:54:55.293Z,59.70
2019-04-14T13:57:24.435Z,60.77
2019-04-14T13:59:53.701Z,60.57
2019-04-14T14:02:22.877Z,60.31
2019-04-14T14:04:51.990Z,60.86
2019-04-14T14:07:21.122Z,60.79
2019-04-14T14:09:50.255Z,61.17
2019-04-14T14:12:41.192Z,60.90
2019-04-14T14:15:28.251Z,61.33
2019-04-14T14:18:06.952Z,60.93
2019-04-14T14:21:01.319Z,61.50
2019-04-14T14:23:49.380Z,61.40
2019-04-14T14:26:19.617Z,61.53
2019-04-14T14:28:48.756Z,61.64
2019-04-14T14:31:19.151Z,61.01
2019-04-14T14:33:48.276Z,61.40
2019-04-14T14:36:17.413Z,61.83
2019-04-14T14:38:46.560Z,61.45
2019-04-14T14:41:17.364Z,61.61
2019-04-14T14:43:46.493Z,61.95
2019-04-14T14:46:36.827Z,62.78
2019-04-14T14:49:12.003Z,62.69
2019-04-14T14:51:52.812Z,63.27
2019-04-14T14:54:21.947Z,63.47
2019-04-14T14:56:51.276Z,63.74
2019-04-14T14:59:20.391Z,63.89
2019-04-14T15:01:49.559Z,63.78
2019-04-14T15:04:19.191Z,64.21
2019-04-14T15:06:48.535Z,64.68
2019-04-14T15:09:17.677Z,64.49
2019-04-14T15:11:46.800Z,65.45
2019-04-14T15:14:15.970Z,65.81
2019-04-14T15:16:45.118Z,66.89
2019-04-14T15:19:14.640Z,66.77
2019-04-14T15:21:43.810Z,66.51
2019-04-14T15:24:13.004Z,67.27
2019-04-14T15:26:42.139Z,66.80
2019-04-14T15:29:11.271Z,67.47
2019-04-14T15:31:40.414Z,67.65
2019-04-14T15:34:10.743Z,67.00
2019-04-14T15:36:40.088Z,67.66
2019-04-14T15:39:10.029Z,68.00
2019-04-14T15:41:39.362Z,68.05
2019-04-14T15:44:08.416Z,68.20
2019-04-14T15:46:37.572Z,67.89
2019-04-14T15:49:06.726Z,66.87
2019-04-14T15:51:35.872Z,66.79
2019-04-14T15:54:05.022Z,67.42
2019-04-14T15:56:50.032Z,67.18
2019-04-14T15:59:35.626Z,67.06
2019-04-14T16:02:16.560Z,67.49
2019-04-14T16:05:16.713Z,66.80
2019-04-14T16:08:02.586Z,66.67
2019-04-14T16:11:02.571Z,66.10
2019-04-14T16:13:50.688Z,66.55
2019-04-14T16:16:37.503Z,68.01
2019-04-14T16:19:28.472Z,67.64
2019-04-14T16:21:57.581Z,68.04
2019-04-14T16:24:26.682Z,68.32
2019-04-14T16:27:02.977Z,68.20
2019-04-14T16:29:50.028Z,67.17
2019-04-14T16:32:40.967Z,67.83
2019-04-14T16:35:14.468Z,67.94
2019-04-14T16:37:43.648Z,67.94
2019-04-14T16:40:12.931Z,68.69
2019-04-14T16:42:42.141Z,68.41
2019-04-14T16:45:12.197Z,68.63
2019-04-14T16:47:41.346Z,68.86
2019-04-14T16:50:10.680Z,68.48
2019-04-14T16:52:46.248Z,68.20
2019-04-14T16:55:19.967Z,69.25
2019-04-14T16:58:08.529Z,68.91
2019-04-14T17:00:41.064Z,69.08
2019-04-14T17:03:10.239Z,68.95
2019-04-14T17:05:39.398Z,68.72
2019-04-14T17:08:08.542Z,68.97
2019-04-14T17:10:37.689Z,69.52
2019-04-14T17:13:06.873Z,69.78
2019-04-14T17:16:00.923Z,69.68
2019-04-14T17:18:47.566Z,69.73
2019-04-14T17:21:30.795Z,69.68
2019-04-14T17:24:21.922Z,69.52
2019-04-14T17:27:00.855Z,70.09
2019-04-14T17:29:36.499Z,70.05
2019-04-14T17:32:16.043Z,70.06
2019-04-14T17:35:02.915Z,70.06
2019-04-14T17:37:48.001Z,70.59
2019-04-14T17:43:39.679Z,70.23
2019-04-14T17:46:27.794Z,70.41
2019-04-14T17:49:21.223Z,70.47
2019-04-14T17:52:09.371Z,70.88
2019-04-14T17:54:48.435Z,70.90
2019-04-14T17:57:35.279Z,70.90
2019-04-14T18:00:16.298Z,70.60
2019-04-14T18:03:04.400Z,70.85
2019-04-14T18:05:40.690Z,70.87
2019-04-14T18:08:29.191Z,70.81
2019-04-14T18:11:07.041Z,71.11
2019-04-14T18:13:55.169Z,71.01
2019-04-14T18:16:32.184Z,71.15
2019-04-14T18:19:20.345Z,71.25
2019-04-14T18:21:49.447Z,71.27
2019-04-14T18:24:18.600Z,71.33
2019-04-14T18:26:47.744Z,71.39
2019-04-14T18:29:37.790Z,71.84
2019-04-14T18:32:25.868Z,71.79
2019-04-14T18:35:13.684Z,71.82
2019-04-14T18:38:17.001Z,71.79
2019-04-14T18:40:54.191Z,71.88
2019-04-14T18:43:48.142Z,72.13
2019-04-14T18:46:28.409Z,72.34
2019-04-14T18:49:03.327Z,72.39
2019-04-14T18:51:42.422Z,72.39
2019-04-14T18:54:17.860Z,72.36
2019-04-14T18:57:24.003Z,72.24
2019-04-14T19:00:12.099Z,72.21
2019-04-14T19:02:41.319Z,72.25
2019-04-14T19:05:10.437Z,72.59
2019-04-14T19:07:39.637Z,72.64
2019-04-14T19:10:08.867Z,72.74
2019-04-14T19:12:53.221Z,72.59
2019-04-14T19:15:41.339Z,72.59
2019-04-14T19:18:16.760Z,72.52
2019-04-14T19:20:49.721Z,72.51
2019-04-14T19:23:19.097Z,72.55
2019-04-14T19:25:48.246Z,72.38
2019-04-14T19:28:17.443Z,72.43
2019-04-14T19:30:46.640Z,72.50
2019-04-14T19:33:15.843Z,72.57
2019-04-14T19:35:44.992Z,72.47
2019-04-14T19:38:14.139Z,72.46
2019-04-14T19:40:43.334Z,72.51
2019-04-14T19:43:23.155Z,72.55
2019-04-14T19:45:43.558Z,72.42
2019-04-14T19:48:12.711Z,72.33
2019-04-14T19:50:41.956Z,72.34
2019-04-14T19:53:11.215Z,72.34
2019-04-14T19:55:40.473Z,72.92
2019-04-14T19:58:09.639Z,73.02
2019-04-14T20:00:38.797Z,72.92
2019-04-14T20:03:07.911Z,73.04
2019-04-14T20:05:37.096Z,73.16
2019-04-14T20:08:06.408Z,73.28
2019-04-14T20:10:35.682Z,73.22
2019-04-14T20:13:04.985Z,73.29
2019-04-14T20:15:37.584Z,73.61
2019-04-14T20:18:23.253Z,73.80
2019-04-14T20:21:10.130Z,74.20
2019-04-14T20:23:43.096Z,74.20
2019-04-14T20:26:37.773Z,74.05
2019-04-14T20:29:19.252Z,74.07
2019-04-14T20:31:54.260Z,74.38
2019-04-14T20:34:23.388Z,74.77
2019-04-14T20:36:52.570Z,75.24
2019-04-14T20:39:22.230Z,75.17
2019-04-14T20:41:51.358Z,74.95
2019-04-14T20:44:20.590Z,74.88
2019-04-14T20:46:49.741Z,74.84
2019-04-14T20:49:18.880Z,74.65
2019-04-14T20:51:48.107Z,74.55
2019-04-14T20:54:17.242Z,74.65
2019-04-14T20:56:46.391Z,74.75
2019-04-14T20:59:15.609Z,75.59
2019-04-14T21:01:50.923Z,75.62
2019-04-14T21:04:28.961Z,75.73
2019-04-14T21:07:32.407Z,75.79
2019-04-14T21:10:12.373Z,75.93
2019-04-14T21:13:00.469Z,75.58
2019-04-14T21:15:34.600Z,75.48
2019-04-14T21:18:25.581Z,75.65
2019-04-14T21:21:05.419Z,75.48
2019-04-14T21:23:40.725Z,75.57
2019-04-14T21:26:28.803Z,76.46
2019-04-14T21:29:10.968Z,76.77
2019-04-14T21:31:48.721Z,76.58
2019-04-14T21:34:36.827Z,76.50
2019-04-14T21:37:23.702Z,76.38
2019-04-14T21:40:15.039Z,76.16
2019-04-14T21:42:44.463Z,75.91
2019-04-14T21:45:13.617Z,75.66
2019-04-14T21:47:42.751Z,75.90
2019-04-14T21:50:12.063Z,76.08
2019-04-14T21:52:43.869Z,76.06
2019-04-14T21:55:12.999Z,76.18
2019-04-14T21:58:04.719Z,76.22
2019-04-14T22:01:44.849Z,75.81
2019-04-14T22:04:48.319Z,76.08
2019-04-14T22:07:30.247Z,75.67
2019-04-14T22:10:30.390Z,76.15
2019-04-14T22:12:59.507Z,76.31
2019-04-14T22:15:28.683Z,76.39
2019-04-14T22:17:57.852Z,76.42
2019-04-14T22:20:26.991Z,76.44
2019-04-14T22:22:56.180Z,76.03
2019-04-14T22:25:25.355Z,76.26
2019-04-14T22:27:54.562Z,76.57
2019-04-14T22:30:23.695Z,76.99
2019-04-14T22:32:52.855Z,77.10
2019-04-14T22:35:22.069Z,76.99
2019-04-14T22:37:51.214Z,77.15
2019-04-14T22:40:20.331Z,77.32
2019-04-14T22:42:50.096Z,77.12
2019-04-14T22:45:19.230Z,76.96
2019-04-14T22:47:48.678Z,77.05
2019-04-14T22:50:17.803Z,77.25
2019-04-14T22:52:46.952Z,77.28
2019-04-14T22:55:16.058Z,77.58
2019-04-14T22:57:45.214Z,77.60
2019-04-14T23:00:33.160Z,77.32
2019-04-14T23:03:18.450Z,77.13
2019-04-14T23:06:06.544Z,76.96
2019-04-14T23:08:39.956Z,76.85
2019-04-14T23:11:29.341Z,76.92
2019-04-14T23:14:13.804Z,76.87
2019-04-14T23:17:00.456Z,77.08
2019-04-14T23:19:34.698Z,77.26
2019-04-14T23:22:14.440Z,77.21
2019-04-14T23:24:46.042Z,77.39
2019-04-14T23:27:15.202Z,77.33
2019-04-14T23:29:44.367Z,77.36
2019-04-14T23:32:13.524Z,77.26
2019-04-14T23:34:42.695Z,77.39
2019-04-14T23:37:11.854Z,77.52
2019-04-14T23:39:41.118Z,77.69
2019-04-14T23:42:10.331Z,77.96
2019-04-14T23:44:39.484Z,78.25
2019-04-14T23:47:08.653Z,78.24
2019-04-14T23:49:37.790Z,78.30
2019-04-14T23:52:06.957Z,78.08
2019-04-14T23:54:36.077Z,77.99
2019-04-14T23:57:06.725Z,77.77
2019-04-14T23:59:36.048Z,77.51
